Hawley, Texas
Current Conditions -  °F | °C
As of 1:58 PM on Thursday 30 Oct 2014 (Local Time) from KDYS Reporting Station
Scattered Clouds Scattered Clouds  
Wind Chill: 80°   Ceiling: Unl
Heat Index: 81°   Visibility: 10mi
Dew Point: 60°   Wind: 7mph
Humidity: 52%   Direction: NA
Pressure: 30.09"   Gusts: NA
Location:  32.61°N, 99.81°W
Report Text: KDYS 301858Z AUTO VRB06KT 10SM SCT043 26/16 A3009 RMK AO2 SLP156 T02640158 $
Loading
Personal Weather Stations






























Interactive Weather Map
Tropical Storm Tracking
New forecast layout! Learn more

10-Day Weather Forecast

Advertisements
Track Severe Weather on mobile